Perryville, Louisiana
Current Conditions -  °F | °C
As of 6:15 AM on Friday 28 Nov 2014 (Local Time) from KBQP Reporting Station
Haze Haze  
Wind Chill: 30°   Ceiling: Unl
Heat Index: 30°   Visibility: 5mi
Dew Point: 29°   Wind: 0mph
Humidity: 96%   Direction: NA
Pressure: 30.41"   Gusts: NA
Location:  32.8721°N, 91.912°W
Report Text: KBQP 281215Z AUTO 00000KT 5SM BR CLR M01/M01 A3041 RMK AO2 T10091015
Loading
Personal Weather Stations






























Interactive Weather Map New forecast layout! Learn more

10-Day Weather Forecast

Advertisements
Track Severe Weather on mobile